createdAt,value
2017-03-11T00:00:31.734Z,51.70
2017-03-11T00:01:28.492Z,51.80
2017-03-11T00:02:29.441Z,51.70
2017-03-11T00:03:43.059Z,52.10
2017-03-11T00:04:27.246Z,51.70
2017-03-11T00:05:35.667Z,51.80
2017-03-11T00:06:26.259Z,51.70
2017-03-11T00:07:27.779Z,51.90
2017-03-11T00:08:32.961Z,52.00
2017-03-11T00:09:27.069Z,52.00
2017-03-11T00:10:38.917Z,51.80
2017-03-11T00:11:40.030Z,52.00
2017-03-11T00:12:29.116Z,52.20
2017-03-11T00:13:27.862Z,51.90
2017-03-11T00:14:34.424Z,52.00
2017-03-11T00:15:38.815Z,52.20
2017-03-11T00:16:22.683Z,52.00
2017-03-11T00:17:27.678Z,52.00
2017-03-11T00:18:27.668Z,52.00
2017-03-11T00:19:42.853Z,52.10
2017-03-11T00:20:17.022Z,52.10
2017-03-11T00:21:22.267Z,52.10
2017-03-11T00:22:28.937Z,52.40
2017-03-11T00:23:22.774Z,52.20
2017-03-11T00:24:27.109Z,52.20
2017-03-11T00:25:27.216Z,52.20
2017-03-11T00:26:22.852Z,52.20
2017-03-11T00:27:16.196Z,52.30
2017-03-11T00:28:42.272Z,52.30
2017-03-11T00:29:27.353Z,52.30
2017-03-11T00:30:27.333Z,52.40
2017-03-11T00:31:27.128Z,52.30
2017-03-11T00:32:27.608Z,52.30
2017-03-11T00:33:38.616Z,52.20
2017-03-11T00:34:33.860Z,52.40
2017-03-11T00:35:29.389Z,52.30
2017-03-11T00:36:29.034Z,52.50
2017-03-11T00:37:37.797Z,52.40
2017-03-11T00:38:21.148Z,is
2017-03-11T00:39:37.294Z,52.30
2017-03-11T00:40:26.633Z,52.40
2017-03-11T00:41:26.778Z,52.40
2017-03-11T00:42:38.916Z,52.40
2017-03-11T00:43:37.273Z,52.40
2017-03-11T00:44:37.372Z,52.40
2017-03-11T00:45:18.214Z,52.40
2017-03-11T00:46:22.711Z,52.40
2017-03-11T00:47:22.056Z,52.40
2017-03-11T00:48:27.121Z,52.50
2017-03-11T00:49:46.971Z,52.60
2017-03-11T00:50:27.765Z,52.70
2017-03-11T00:51:33.428Z,52.50
2017-03-11T00:52:21.062Z,52.50
2017-03-11T00:53:26.423Z,52.60
2017-03-11T00:54:40.249Z,52.70
2017-03-11T00:55:27.681Z,52.60
2017-03-11T00:56:38.431Z,52.70
2017-03-11T00:57:40.578Z,52.70
2017-03-11T00:58:26.654Z,52.70
2017-03-11T00:59:46.430Z,52.70
2017-03-11T01:00:41.675Z,52.70
2017-03-11T01:01:38.098Z,52.80
2017-03-11T01:02:27.425Z,is
2017-03-11T01:03:26.660Z,52.90
2017-03-11T01:04:36.065Z,is
2017-03-11T01:05:26.284Z,52.80
2017-03-11T01:06:26.604Z,52.90
2017-03-11T01:07:33.406Z,52.90
2017-03-11T01:08:40.396Z,52.80
2017-03-11T01:09:26.887Z,52.90
2017-03-11T01:10:28.699Z,52.80
2017-03-11T01:11:39.543Z,52.80
2017-03-11T01:12:39.222Z,52.90
2017-03-11T01:13:27.077Z,is
2017-03-11T01:14:32.709Z,52.80
2017-03-11T01:15:21.875Z,52.90
2017-03-11T01:16:26.645Z,52.90
2017-03-11T01:17:39.597Z,52.90
2017-03-11T01:18:35.778Z,53.00
2017-03-11T01:19:39.550Z,53.00
2017-03-11T01:20:29.114Z,53.00
2017-03-11T01:22:33.984Z,53.10
2017-03-11T01:23:32.967Z,53.20
2017-03-11T01:24:26.162Z,53.00
2017-03-11T01:25:31.756Z,53.10
2017-03-11T01:26:36.643Z,53.10
2017-03-11T01:27:32.883Z,53.10
2017-03-11T01:28:43.381Z,53.00
2017-03-11T01:29:27.652Z,53.10
2017-03-11T01:30:35.685Z,53.10
2017-03-11T01:31:36.664Z,53.10
2017-03-11T01:32:26.459Z,53.10
2017-03-11T01:33:34.467Z,53.20
2017-03-11T01:34:39.475Z,53.20
2017-03-11T01:35:34.374Z,53.20
2017-03-11T01:36:20.465Z,53.20
2017-03-11T01:37:28.520Z,52.90
2017-03-11T01:38:33.501Z,53.10
2017-03-11T01:39:36.125Z,53.20
2017-03-11T01:40:24.997Z,53.30
2017-03-11T01:41:37.316Z,53.30
2017-03-11T01:42:28.533Z,53.20
2017-03-11T01:44:43.652Z,53.30
2017-03-11T01:45:21.500Z,53.40
2017-03-11T01:46:37.914Z,53.30
2017-03-11T01:47:37.247Z,53.50
2017-03-11T01:48:38.134Z,53.20
2017-03-11T01:49:37.327Z,53.30
2017-03-11T01:50:28.430Z,53.20
2017-03-11T01:51:28.445Z,53.30
2017-03-11T01:52:35.599Z,53.30
2017-03-11T01:53:22.323Z,53.40
2017-03-11T01:54:25.967Z,53.30
2017-03-11T01:55:40.762Z,53.40
2017-03-11T01:56:37.456Z,53.40
2017-03-11T01:57:28.895Z,53.40
2017-03-11T01:58:27.561Z,53.10
2017-03-11T01:59:33.659Z,53.40
2017-03-11T02:00:37.163Z,53.30
2017-03-11T02:01:16.179Z,53.50
2017-03-11T02:02:33.309Z,53.30
2017-03-11T02:03:27.152Z,52.90
2017-03-11T02:04:28.538Z,53.40
2017-03-11T02:05:22.768Z,is
2017-03-11T02:07:28.800Z,53.40
2017-03-11T02:08:38.800Z,53.30
2017-03-11T02:09:21.866Z,is
2017-03-11T02:10:21.159Z,53.30
2017-03-11T02:11:27.928Z,53.40
2017-03-11T02:12:43.481Z,53.40
2017-03-11T02:13:26.720Z,53.50
2017-03-11T02:14:44.428Z,53.40
2017-03-11T02:15:26.809Z,53.40
2017-03-11T02:16:37.481Z,53.40
2017-03-11T02:17:37.539Z,53.40
2017-03-11T02:18:27.353Z,53.40
2017-03-11T02:19:22.785Z,is
2017-03-11T02:20:34.308Z,53.40
2017-03-11T02:21:43.100Z,53.50
2017-03-11T02:22:18.120Z,53.40
2017-03-11T02:23:21.934Z,53.50
2017-03-11T02:24:32.717Z,53.50
2017-03-11T02:25:36.325Z,53.60
2017-03-11T02:27:23.869Z,53.50
2017-03-11T02:28:28.907Z,53.50
2017-03-11T02:29:40.807Z,53.60
2017-03-11T02:30:41.779Z,53.60
2017-03-11T02:31:38.319Z,53.70
2017-03-11T02:32:31.005Z,53.60
2017-03-11T02:33:36.796Z,53.60
2017-03-11T02:34:42.007Z,53.60
2017-03-11T02:35:36.095Z,53.70
2017-03-11T02:36:33.329Z,53.60
2017-03-11T02:37:31.094Z,53.70
2017-03-11T02:38:38.969Z,53.70
2017-03-11T02:39:27.786Z,53.70
2017-03-11T02:41:28.941Z,53.00
2017-03-11T02:43:37.811Z,53.70
2017-03-11T02:44:48.093Z,54.10
2017-03-11T02:45:26.057Z,53.70
2017-03-11T02:46:26.806Z,53.80
2017-03-11T02:47:28.730Z,53.70
2017-03-11T02:48:27.379Z,53.70
2017-03-11T02:49:40.407Z,53.70
2017-03-11T02:50:40.593Z,53.70
2017-03-11T02:51:41.666Z,53.70
2017-03-11T02:52:32.931Z,53.70
2017-03-11T02:53:41.871Z,54.00
2017-03-11T02:54:28.964Z,53.70
2017-03-11T02:55:26.445Z,53.70
2017-03-11T02:56:22.906Z,is
2017-03-11T02:57:33.501Z,53.80
2017-03-11T02:58:37.431Z,53.70
2017-03-11T02:59:45.099Z,53.80
2017-03-11T03:00:22.063Z,53.70
2017-03-11T03:01:33.607Z,53.80
2017-03-11T03:02:17.137Z,53.70
2017-03-11T03:03:29.268Z,53.80
2017-03-11T03:04:37.159Z,53.70
2017-03-11T03:05:33.650Z,53.70
2017-03-11T03:06:20.997Z,53.80
2017-03-11T03:07:22.085Z,53.70
2017-03-11T03:08:32.931Z,53.80
2017-03-11T03:10:27.491Z,53.80
2017-03-11T03:11:22.936Z,53.80
2017-03-11T03:12:27.510Z,53.70
2017-03-11T03:13:27.781Z,53.80
2017-03-11T03:14:27.509Z,53.90
2017-03-11T03:15:27.409Z,53.80
2017-03-11T03:16:21.983Z,53.80
2017-03-11T03:17:37.885Z,53.90
2017-03-11T03:18:28.989Z,53.90
2017-03-11T03:19:41.618Z,53.90
2017-03-11T03:20:37.886Z,is
2017-03-11T03:21:23.013Z,54.00
2017-03-11T03:22:33.699Z,53.90
2017-03-11T03:23:21.774Z,54.00
2017-03-11T03:24:37.161Z,54.00
2017-03-11T03:25:23.037Z,54.00
2017-03-11T03:27:36.215Z,53.90
2017-03-11T03:28:27.545Z,54.10
2017-03-11T03:29:31.691Z,54.10
2017-03-11T03:30:23.071Z,54.10
2017-03-11T03:31:33.582Z,54.10
2017-03-11T03:32:28.655Z,54.10
2017-03-11T03:33:27.526Z,54.10
2017-03-11T03:34:27.689Z,54.20
2017-03-11T03:35:28.751Z,54.00
2017-03-11T03:36:22.932Z,54.20
2017-03-11T03:37:27.831Z,is
2017-03-11T03:38:43.238Z,54.10
2017-03-11T03:39:42.783Z,54.00
2017-03-11T03:40:21.861Z,54.10
2017-03-11T03:41:27.485Z,54.20
2017-03-11T03:42:16.313Z,54.20
2017-03-11T03:43:26.554Z,54.20
2017-03-11T03:44:23.063Z,54.20
2017-03-11T03:45:28.032Z,54.30
2017-03-11T03:46:21.931Z,is
2017-03-11T03:47:29.245Z,54.20
2017-03-11T03:48:41.336Z,54.30
2017-03-11T03:49:22.941Z,54.20
2017-03-11T03:50:27.026Z,54.20
2017-03-11T03:51:26.389Z,54.50
2017-03-11T03:52:27.293Z,54.30
2017-03-11T03:53:27.762Z,54.20
2017-03-11T03:54:21.931Z,54.40
2017-03-11T03:55:22.956Z,54.30
2017-03-11T03:56:28.262Z,54.30
2017-03-11T03:57:41.875Z,54.30
2017-03-11T03:58:28.886Z,54.40
2017-03-11T04:00:34.407Z,54.30
2017-03-11T04:01:28.789Z,54.20
2017-03-11T04:02:26.052Z,54.20
2017-03-11T04:03:36.687Z,54.30
2017-03-11T04:04:26.801Z,54.20
2017-03-11T04:05:32.912Z,54.20
2017-03-11T04:06:32.988Z,is
2017-03-11T04:07:22.474Z,54.30
2017-03-11T04:08:38.902Z,54.40
2017-03-11T04:09:23.947Z,is
2017-03-11T04:10:21.574Z,54.40
2017-03-11T04:11:28.351Z,54.40
2017-03-11T04:12:42.944Z,54.30
2017-03-11T04:13:21.543Z,54.20
2017-03-11T04:14:38.688Z,54.30
2017-03-11T04:15:28.622Z,54.70
2017-03-11T04:16:21.978Z,54.20
2017-03-11T04:17:22.968Z,54.40
2017-03-11T04:18:28.944Z,54.40
2017-03-11T04:19:37.821Z,54.30
2017-03-11T04:20:33.040Z,54.40
2017-03-11T04:21:27.127Z,54.30
2017-03-11T04:22:27.898Z,54.30
2017-03-11T04:23:28.769Z,54.30
2017-03-11T04:24:26.166Z,54.30
2017-03-11T04:25:26.347Z,54.30
2017-03-11T04:26:26.787Z,54.20
2017-03-11T04:27:27.497Z,54.20
2017-03-11T04:28:26.585Z,54.30
2017-03-11T04:29:23.998Z,54.20
2017-03-11T04:30:33.324Z,54.20
2017-03-11T04:31:43.540Z,54.20
2017-03-11T04:32:23.406Z,54.20
2017-03-11T04:35:34.115Z,54.20
2017-03-11T04:36:27.224Z,is
2017-03-11T04:37:27.092Z,54.20
2017-03-11T04:38:21.502Z,54.10
2017-03-11T04:39:29.100Z,54.00
2017-03-11T04:41:27.986Z,54.20
2017-03-11T04:42:29.100Z,54.10
2017-03-11T04:43:17.509Z,54.20
2017-03-11T04:44:23.148Z,54.00
2017-03-11T04:45:34.081Z,is
2017-03-11T04:46:21.081Z,54.00
2017-03-11T04:47:32.995Z,54.00
2017-03-11T04:48:22.033Z,54.00
2017-03-11T04:49:26.771Z,54.10
2017-03-11T04:50:37.169Z,54.00
2017-03-11T04:51:22.119Z,53.90
2017-03-11T04:52:23.044Z,is
2017-03-11T04:53:29.231Z,54.00
2017-03-11T04:54:40.282Z,54.00
2017-03-11T04:55:32.841Z,54.00
2017-03-11T04:57:37.074Z,54.00
2017-03-11T04:58:29.602Z,54.10
2017-03-11T04:59:37.284Z,is
2017-03-11T05:00:31.538Z,53.80
2017-03-11T05:01:27.062Z,53.90
2017-03-11T05:02:17.168Z,53.80
2017-03-11T05:03:27.910Z,53.90
2017-03-11T05:04:27.604Z,53.90
2017-03-11T05:05:29.067Z,53.90
2017-03-11T05:06:23.118Z,is
2017-03-11T05:07:28.632Z,53.90
2017-03-11T05:08:37.371Z,53.70
2017-03-11T05:09:33.248Z,53.80
2017-03-11T05:10:20.610Z,53.70
2017-03-11T05:11:21.191Z,is
2017-03-11T05:12:37.449Z,53.70
2017-03-11T05:13:21.823Z,53.70
2017-03-11T05:14:28.391Z,53.80
2017-03-11T05:15:28.579Z,53.70
2017-03-11T05:16:29.360Z,53.70
2017-03-11T05:17:28.529Z,53.70
2017-03-11T05:18:28.388Z,53.70
2017-03-11T05:19:29.019Z,53.70
2017-03-11T05:20:26.988Z,53.70
2017-03-11T05:21:37.318Z,53.70
2017-03-11T05:22:27.299Z,53.70
2017-03-11T05:23:37.205Z,53.60
2017-03-11T05:24:27.124Z,53.60
2017-03-11T05:27:46.427Z,53.60
2017-03-11T05:27:51.634Z,53.60
2017-03-11T05:28:07.182Z,53.60
2017-03-11T05:28:23.337Z,53.50
2017-03-11T05:29:33.488Z,53.50
2017-03-11T05:30:40.756Z,54.00
2017-03-11T05:31:22.088Z,53.70
2017-03-11T05:32:36.949Z,53.60
2017-03-11T05:33:21.387Z,53.50
2017-03-11T05:34:27.826Z,53.60
2017-03-11T05:35:33.206Z,53.70
2017-03-11T05:36:27.266Z,53.70
2017-03-11T05:37:28.702Z,53.70
2017-03-11T05:38:28.600Z,53.20
2017-03-11T05:39:23.135Z,53.70
2017-03-11T05:40:21.835Z,53.70
2017-03-11T05:41:22.231Z,53.70
2017-03-11T05:42:27.206Z,is
2017-03-11T05:43:22.069Z,53.70
2017-03-11T05:44:32.056Z,53.60
2017-03-11T05:45:27.314Z,53.50
2017-03-11T05:46:28.667Z,53.70
2017-03-11T05:47:23.300Z,53.60
2017-03-11T05:48:32.651Z,53.50
2017-03-11T05:49:22.813Z,53.60
2017-03-11T05:50:28.443Z,53.50
2017-03-11T05:51:27.053Z,53.60
2017-03-11T05:52:22.097Z,53.60
2017-03-11T05:53:21.694Z,is
2017-03-11T05:54:26.626Z,53.50
2017-03-11T05:55:27.727Z,52.80
2017-03-11T05:56:33.030Z,53.50
2017-03-11T05:57:16.500Z,53.50
2017-03-11T05:58:22.566Z,53.40
2017-03-11T05:59:22.838Z,53.60
2017-03-11T06:00:28.634Z,53.50
2017-03-11T06:01:23.225Z,53.40
2017-03-11T06:02:32.887Z,53.50
2017-03-11T06:03:26.890Z,53.80
2017-03-11T06:04:14.713Z,53.40
2017-03-11T06:05:26.883Z,53.50
2017-03-11T06:06:37.244Z,53.50
2017-03-11T06:07:32.737Z,53.40
2017-03-11T06:08:32.923Z,53.40
2017-03-11T06:09:37.731Z,53.30
2017-03-11T06:10:27.210Z,53.40
2017-03-11T06:11:34.562Z,53.40
2017-03-11T06:12:40.369Z,53.30
2017-03-11T06:13:22.166Z,53.30
2017-03-11T06:14:25.252Z,53.40
2017-03-11T06:15:35.238Z,53.30
2017-03-11T06:16:35.907Z,53.30
2017-03-11T06:17:16.557Z,is
2017-03-11T06:18:27.373Z,53.40
2017-03-11T06:19:27.000Z,53.30
2017-03-11T06:20:32.864Z,53.40
2017-03-11T06:21:28.031Z,53.30
2017-03-11T06:22:27.350Z,53.40
2017-03-11T06:23:29.210Z,53.40
2017-03-11T06:24:23.284Z,53.30
2017-03-11T06:25:16.534Z,53.30
2017-03-11T06:26:28.626Z,53.30
2017-03-11T06:27:27.265Z,53.40
2017-03-11T06:28:36.233Z,53.30
2017-03-11T06:29:32.128Z,53.30
2017-03-11T06:30:28.629Z,53.40
2017-03-11T06:31:27.296Z,53.30
2017-03-11T06:32:23.189Z,53.30
2017-03-11T06:33:28.991Z,53.30
2017-03-11T06:34:27.321Z,is
2017-03-11T06:35:22.191Z,53.50
2017-03-11T06:36:28.921Z,53.40
2017-03-11T06:37:32.180Z,53.40
2017-03-11T06:38:19.151Z,53.40
2017-03-11T06:39:27.329Z,53.40
2017-03-11T06:40:32.323Z,53.30
2017-03-11T06:41:15.543Z,53.40
2017-03-11T06:42:26.741Z,53.40
2017-03-11T06:43:29.301Z,53.40
2017-03-11T06:44:28.233Z,53.40
2017-03-11T06:45:23.658Z,53.50
2017-03-11T06:46:22.096Z,53.40
2017-03-11T06:47:17.558Z,53.40
2017-03-11T06:48:23.310Z,53.50
2017-03-11T06:49:34.944Z,53.50
2017-03-11T06:50:21.575Z,53.50
2017-03-11T06:51:27.085Z,53.60
2017-03-11T06:52:27.899Z,53.50
2017-03-11T06:53:21.155Z,53.40
2017-03-11T06:54:26.840Z,53.50
2017-03-11T06:55:29.330Z,53.60
2017-03-11T06:56:23.606Z,53.60
2017-03-11T06:57:33.630Z,53.50
2017-03-11T06:58:32.990Z,53.50
2017-03-11T06:59:22.559Z,53.60
2017-03-11T07:00:22.145Z,is
2017-03-11T07:01:31.686Z,53.50
2017-03-11T07:02:21.385Z,53.60
2017-03-11T07:03:32.462Z,53.70
2017-03-11T07:04:37.226Z,53.60
2017-03-11T07:05:27.294Z,53.60
2017-03-11T07:06:37.580Z,53.70
2017-03-11T07:07:23.209Z,is
2017-03-11T07:08:23.235Z,53.70
2017-03-11T07:09:27.683Z,53.70
2017-03-11T07:10:38.758Z,53.70
2017-03-11T07:11:47.284Z,53.70
2017-03-11T07:12:29.412Z,53.70
2017-03-11T07:13:27.540Z,is
2017-03-11T07:14:37.431Z,53.70
2017-03-11T07:15:41.644Z,53.70
2017-03-11T07:16:23.723Z,54.00
2017-03-11T07:17:33.698Z,53.90
2017-03-11T07:18:38.920Z,53.90
2017-03-11T07:19:23.102Z,53.80
2017-03-11T07:20:27.934Z,53.90
2017-03-11T07:21:16.621Z,53.90
2017-03-11T07:22:33.479Z,53.90
2017-03-11T07:23:22.209Z,is
2017-03-11T07:24:27.551Z,54.00
2017-03-11T07:25:37.344Z,53.90
2017-03-11T07:26:31.837Z,is
2017-03-11T07:27:35.867Z,53.90
2017-03-11T07:28:27.550Z,54.10
2017-03-11T07:29:40.725Z,54.00
2017-03-11T07:30:31.476Z,53.90
2017-03-11T07:31:29.443Z,54.00
2017-03-11T07:32:27.956Z,53.90
2017-03-11T07:33:34.011Z,54.00
2017-03-11T07:34:28.243Z,54.00
2017-03-11T07:35:37.505Z,is
2017-03-11T07:36:33.164Z,54.20
2017-03-11T07:37:37.265Z,54.00
2017-03-11T07:38:21.693Z,54.10
2017-03-11T07:39:23.483Z,54.60
2017-03-11T07:40:30.274Z,54.10
2017-03-11T07:41:29.055Z,54.20
2017-03-11T07:42:23.245Z,54.20
2017-03-11T07:43:22.026Z,54.20
2017-03-11T07:44:28.222Z,54.50
2017-03-11T07:45:40.953Z,54.30
2017-03-11T07:46:26.003Z,54.50
2017-03-11T07:47:31.846Z,54.50
2017-03-11T07:48:17.642Z,54.70
2017-03-11T07:49:27.167Z,is
2017-03-11T07:50:29.376Z,54.50
2017-03-11T07:51:33.106Z,54.80
2017-03-11T07:52:29.215Z,54.90
2017-03-11T07:53:22.196Z,54.80
2017-03-11T07:54:16.676Z,54.80
2017-03-11T07:55:25.999Z,55.00
2017-03-11T07:56:27.033Z,55.40
2017-03-11T07:57:27.692Z,55.10
2017-03-11T07:58:25.606Z,54.80
2017-03-11T07:59:34.850Z,55.20
2017-03-11T08:00:26.593Z,55.60
2017-03-11T08:01:28.023Z,54.80
2017-03-11T08:02:28.243Z,54.70
2017-03-11T08:03:23.380Z,54.60
2017-03-11T08:04:29.231Z,54.70
2017-03-11T08:05:28.642Z,54.80
2017-03-11T08:06:33.158Z,54.60
2017-03-11T08:07:33.979Z,54.60
2017-03-11T08:08:27.994Z,54.70
2017-03-11T08:09:37.452Z,54.70
2017-03-11T08:10:33.111Z,54.80
2017-03-11T08:11:27.595Z,is
2017-03-11T08:12:29.125Z,54.90
2017-03-11T08:13:29.150Z,54.70
2017-03-11T08:14:28.528Z,54.70
2017-03-11T08:15:28.751Z,54.70
2017-03-11T08:16:28.839Z,54.80
2017-03-11T08:17:33.205Z,54.70
2017-03-11T08:18:27.596Z,54.50
2017-03-11T08:19:34.542Z,54.50
2017-03-11T08:20:35.752Z,54.60
2017-03-11T08:21:27.993Z,is
2017-03-11T08:22:43.151Z,47.40
2017-03-11T08:23:39.195Z,43.00
2017-03-11T08:24:29.167Z,41.70
2017-03-11T08:25:40.718Z,is
2017-03-11T08:26:28.132Z,50.50
2017-03-11T08:27:33.302Z,50.60
2017-03-11T08:28:29.329Z,51.20
2017-03-11T08:29:29.123Z,51.60
2017-03-11T08:30:34.093Z,51.70
2017-03-11T08:31:29.922Z,51.70
2017-03-11T08:32:28.652Z,51.70
2017-03-11T08:33:33.670Z,51.90
2017-03-11T08:34:28.227Z,51.90
2017-03-11T08:35:29.291Z,51.90
2017-03-11T08:36:34.088Z,51.90
2017-03-11T08:37:38.140Z,51.90
2017-03-11T08:38:28.824Z,52.10
2017-03-11T08:39:29.474Z,52.00
2017-03-11T08:40:29.071Z,52.10
2017-03-11T08:41:33.273Z,52.20
2017-03-11T08:42:28.434Z,52.20
2017-03-11T08:43:26.162Z,52.30
2017-03-11T08:44:37.005Z,52.30
2017-03-11T08:45:33.265Z,52.40
2017-03-11T08:46:29.052Z,52.30
2017-03-11T08:47:33.640Z,52.20
2017-03-11T08:48:34.709Z,52.40
2017-03-11T08:49:33.414Z,52.40
2017-03-11T08:50:28.760Z,52.60
2017-03-11T08:51:28.895Z,52.20
2017-03-11T08:52:28.120Z,52.60
2017-03-11T08:53:28.822Z,is
2017-03-11T08:54:26.114Z,52.70
2017-03-11T08:55:26.764Z,52.60
2017-03-11T08:56:28.629Z,52.70
2017-03-11T08:57:38.168Z,52.90
2017-03-11T08:58:29.567Z,52.90
2017-03-11T08:59:34.111Z,53.00
2017-03-11T09:00:29.013Z,52.90
2017-03-11T09:01:28.637Z,53.00
2017-03-11T09:02:33.516Z,53.00
2017-03-11T09:03:28.695Z,is
2017-03-11T09:04:35.106Z,is
2017-03-11T09:05:37.541Z,53.00
2017-03-11T09:06:33.216Z,52.90
2017-03-11T09:07:27.141Z,52.80
2017-03-11T09:08:27.984Z,53.20
2017-03-11T09:09:33.277Z,52.90
2017-03-11T09:10:27.616Z,52.80
2017-03-11T09:11:29.464Z,52.80
2017-03-11T09:12:19.621Z,53.10
2017-03-11T09:13:29.407Z,53.10
2017-03-11T09:14:26.135Z,53.10
2017-03-11T09:15:22.257Z,52.90
2017-03-11T09:16:27.005Z,52.90
2017-03-11T09:17:22.141Z,is
2017-03-11T09:18:27.193Z,is
2017-03-11T09:19:27.136Z,51.10
2017-03-11T09:20:26.894Z,51.20
2017-03-11T09:21:38.866Z,is
2017-03-11T09:22:33.928Z,51.10
2017-03-11T09:23:23.344Z,51.10
2017-03-11T09:24:33.259Z,51.40
2017-03-11T09:25:33.057Z,51.50
2017-03-11T09:26:30.060Z,51.90
2017-03-11T09:27:28.204Z,52.20
2017-03-11T09:28:21.657Z,52.20
2017-03-11T09:29:33.161Z,is
2017-03-11T09:30:27.592Z,52.30
2017-03-11T09:31:34.826Z,52.20
2017-03-11T09:32:28.722Z,52.20
2017-03-11T09:33:38.533Z,52.20
2017-03-11T09:34:37.887Z,52.10
2017-03-11T09:35:28.776Z,52.10
2017-03-11T09:36:33.322Z,52.20
2017-03-11T09:37:34.111Z,52.10
2017-03-11T09:38:27.571Z,52.10
2017-03-11T09:39:26.634Z,52.00
2017-03-11T09:40:27.951Z,52.10
2017-03-11T09:41:27.905Z,52.10
2017-03-11T09:42:28.611Z,51.90
2017-03-11T09:43:33.074Z,51.90
2017-03-11T09:44:34.723Z,51.90
2017-03-11T09:45:29.095Z,52.00
2017-03-11T09:46:29.703Z,52.10
2017-03-11T09:47:28.982Z,52.00
2017-03-11T09:48:34.017Z,51.90
2017-03-11T09:49:37.172Z,52.00
2017-03-11T09:50:33.413Z,52.00
2017-03-11T09:51:33.251Z,52.00
2017-03-11T09:52:28.164Z,51.40
2017-03-11T09:53:28.577Z,52.00
2017-03-11T09:54:28.178Z,51.90
2017-03-11T09:55:28.917Z,52.00
2017-03-11T09:56:45.144Z,51.90
2017-03-11T09:57:29.607Z,52.10
2017-03-11T09:58:33.473Z,51.90
2017-03-11T09:59:34.466Z,51.90
2017-03-11T10:00:37.311Z,is
2017-03-11T10:01:29.160Z,51.90
2017-03-11T10:02:28.602Z,51.90
2017-03-11T10:03:33.450Z,52.10
2017-03-11T10:04:29.344Z,51.90
2017-03-11T10:05:29.542Z,52.10
2017-03-11T10:06:29.395Z,52.00
2017-03-11T10:07:31.713Z,52.00
2017-03-11T10:08:29.614Z,52.30
2017-03-11T10:09:41.191Z,52.20
2017-03-11T10:10:37.567Z,is
2017-03-11T10:11:27.514Z,52.20
2017-03-11T10:12:35.757Z,52.20
2017-03-11T10:13:32.176Z,52.10
2017-03-11T10:14:33.160Z,is
2017-03-11T10:15:28.882Z,52.20
2017-03-11T10:16:33.950Z,52.20
2017-03-11T10:17:33.144Z,52.20
2017-03-11T10:18:28.589Z,52.30
2017-03-11T10:19:29.005Z,52.30
2017-03-11T10:20:29.067Z,52.40
2017-03-11T10:21:33.175Z,is
2017-03-11T10:22:27.934Z,52.40
2017-03-11T10:23:28.213Z,is
2017-03-11T10:24:37.083Z,52.40
2017-03-11T10:25:28.700Z,52.50
2017-03-11T10:26:28.965Z,52.50
2017-03-11T10:27:29.058Z,52.40
2017-03-11T10:28:28.992Z,52.50
2017-03-11T10:29:29.652Z,52.40
2017-03-11T10:30:34.112Z,52.50
2017-03-11T10:31:37.354Z,52.40
2017-03-11T10:32:29.271Z,52.50
2017-03-11T10:33:27.549Z,52.40
2017-03-11T10:34:30.652Z,52.40
2017-03-11T10:35:28.153Z,is
2017-03-11T10:36:42.103Z,52.30
2017-03-11T10:37:22.943Z,52.40
2017-03-11T10:38:28.765Z,52.30
2017-03-11T10:39:38.232Z,52.40
2017-03-11T10:40:29.027Z,52.40
2017-03-11T10:41:28.212Z,52.40
2017-03-11T10:42:23.245Z,52.40
2017-03-11T10:43:33.175Z,52.40
2017-03-11T10:44:28.843Z,52.40
2017-03-11T10:45:34.996Z,52.40
2017-03-11T10:46:27.959Z,52.40
2017-03-11T10:47:41.789Z,52.40
2017-03-11T10:48:27.873Z,52.40
2017-03-11T10:49:37.818Z,is
2017-03-11T10:50:33.030Z,52.30
2017-03-11T10:51:33.085Z,52.40
2017-03-11T10:52:29.330Z,52.30
2017-03-11T10:53:28.987Z,52.30
2017-03-11T10:54:38.861Z,52.40
2017-03-11T10:55:34.662Z,52.40
2017-03-11T10:56:35.561Z,52.40
2017-03-11T10:57:33.106Z,52.40
2017-03-11T10:58:37.326Z,52.40
2017-03-11T10:59:37.438Z,52.40
2017-03-11T11:00:33.409Z,52.40
2017-03-11T11:01:29.391Z,52.40
2017-03-11T11:02:33.000Z,52.50
2017-03-11T11:03:39.234Z,52.40
2017-03-11T11:04:29.098Z,52.40
2017-03-11T11:05:29.243Z,52.30
2017-03-11T11:06:33.316Z,52.50
2017-03-11T11:07:40.177Z,52.50
2017-03-11T11:08:27.965Z,52.40
2017-03-11T11:09:37.456Z,52.30
2017-03-11T11:10:36.482Z,52.30
2017-03-11T11:11:33.107Z,52.20
2017-03-11T11:12:33.016Z,52.20
2017-03-11T11:13:38.410Z,52.30
2017-03-11T11:14:28.703Z,52.50
2017-03-11T11:15:28.816Z,52.40
2017-03-11T11:16:28.790Z,52.30
2017-03-11T11:17:29.501Z,52.40
2017-03-11T11:18:40.595Z,52.30
2017-03-11T11:19:27.055Z,52.30
2017-03-11T11:20:27.369Z,52.30
2017-03-11T11:21:32.993Z,is
2017-03-11T11:22:28.544Z,52.20
2017-03-11T11:23:28.651Z,52.40
2017-03-11T11:24:28.997Z,52.40
2017-03-11T11:25:28.760Z,52.20
2017-03-11T11:26:28.536Z,52.20
2017-03-11T11:27:28.879Z,52.40
2017-03-11T11:28:28.733Z,52.20
2017-03-11T11:29:28.640Z,52.20
2017-03-11T11:30:35.189Z,52.30
2017-03-11T11:31:28.242Z,52.30
2017-03-11T11:32:37.250Z,52.30
2017-03-11T11:33:37.168Z,52.10
2017-03-11T11:34:28.543Z,52.30
2017-03-11T11:35:29.501Z,52.20
2017-03-11T11:36:37.247Z,52.30
2017-03-11T11:37:29.352Z,52.10
2017-03-11T11:38:29.337Z,52.10
2017-03-11T11:39:29.269Z,52.10
2017-03-11T11:40:33.420Z,52.20
2017-03-11T11:41:29.224Z,52.20
2017-03-11T11:42:32.935Z,52.20
2017-03-11T11:43:29.327Z,52.10
2017-03-11T11:44:31.959Z,52.10
2017-03-11T11:45:37.298Z,52.10
2017-03-11T11:46:29.337Z,52.00
2017-03-11T11:47:32.850Z,is
2017-03-11T11:48:29.727Z,52.50
2017-03-11T11:49:29.024Z,51.80
2017-03-11T11:50:32.994Z,51.80
2017-03-11T11:51:28.809Z,51.80
2017-03-11T11:52:35.102Z,51.80
2017-03-11T11:53:27.471Z,51.70
2017-03-11T11:54:31.668Z,51.70
2017-03-11T11:55:27.881Z,51.80
2017-03-11T11:56:33.018Z,51.70
2017-03-11T11:57:35.919Z,51.60
2017-03-11T11:58:26.813Z,51.40
2017-03-11T11:59:28.836Z,51.60
2017-03-11T12:00:38.703Z,51.50
2017-03-11T12:01:32.932Z,51.30
2017-03-11T12:02:28.963Z,51.30
2017-03-11T12:03:39.808Z,51.60
2017-03-11T12:04:37.538Z,51.40
2017-03-11T12:05:37.965Z,52.40
2017-03-11T12:06:27.839Z,52.00
2017-03-11T12:07:38.086Z,52.30
2017-03-11T12:08:28.879Z,52.70
2017-03-11T12:09:33.469Z,52.30
2017-03-11T12:10:29.735Z,52.40
2017-03-11T12:11:28.654Z,52.40
2017-03-11T12:12:28.795Z,52.40
2017-03-11T12:13:37.242Z,52.40
2017-03-11T12:14:38.235Z,52.60
2017-03-11T12:15:38.680Z,52.50
2017-03-11T12:16:27.822Z,is
2017-03-11T12:17:27.789Z,52.40
2017-03-11T12:18:27.631Z,52.60
2017-03-11T12:19:28.487Z,52.40
2017-03-11T12:20:29.348Z,52.20
2017-03-11T12:21:28.150Z,52.30
2017-03-11T12:22:28.735Z,52.30
2017-03-11T12:23:28.485Z,52.30
2017-03-11T12:24:28.931Z,52.20
2017-03-11T12:25:33.395Z,52.30
2017-03-11T12:26:32.988Z,is
2017-03-11T12:27:26.922Z,52.30
2017-03-11T12:28:26.829Z,52.20
2017-03-11T12:29:27.493Z,52.30
2017-03-11T12:30:28.787Z,52.30
2017-03-11T12:31:33.126Z,52.30
2017-03-11T12:32:28.820Z,52.30
2017-03-11T12:33:28.413Z,52.40
2017-03-11T12:34:28.718Z,52.20
2017-03-11T12:35:28.460Z,52.20
2017-03-11T12:36:29.437Z,52.20
2017-03-11T12:37:33.959Z,52.30
2017-03-11T12:38:27.474Z,is
2017-03-11T12:39:27.557Z,52.20
2017-03-11T12:40:33.560Z,52.20
2017-03-11T12:41:33.014Z,52.40
2017-03-11T12:42:28.772Z,52.20
2017-03-11T12:43:38.164Z,52.30
2017-03-11T12:44:28.457Z,52.40
2017-03-11T12:45:28.907Z,52.30
2017-03-11T12:46:29.668Z,52.20
2017-03-11T12:47:27.791Z,52.20
2017-03-11T12:48:32.877Z,52.00
2017-03-11T12:49:26.963Z,52.10
2017-03-11T12:50:35.870Z,52.30
2017-03-11T12:51:27.057Z,52.10
2017-03-11T12:52:37.782Z,51.40
2017-03-11T12:53:43.349Z,52.10
2017-03-11T12:54:27.082Z,is
2017-03-11T12:55:37.108Z,52.20
2017-03-11T12:56:28.773Z,52.10
2017-03-11T12:57:28.032Z,52.10
2017-03-11T12:58:33.508Z,52.20
2017-03-11T12:59:40.584Z,52.00
2017-03-11T13:00:34.936Z,52.10
2017-03-11T13:01:36.831Z,52.30
2017-03-11T13:02:28.071Z,52.20
2017-03-11T13:03:37.110Z,52.20
2017-03-11T13:04:27.969Z,52.20
2017-03-11T13:05:33.888Z,52.20
2017-03-11T13:06:27.826Z,52.40
2017-03-11T13:07:28.692Z,52.40
2017-03-11T13:08:29.225Z,52.30
2017-03-11T13:09:29.028Z,52.30
2017-03-11T13:10:28.835Z,52.40